createdAt,value
2019-01-04T00:00:31.733Z,1033.8
2019-01-04T00:01:24.608Z,1033.7
2019-01-04T00:02:17.557Z,1033.7
2019-01-04T00:03:10.466Z,1033.6
2019-01-04T00:04:03.412Z,1033.7
2019-01-04T00:04:56.286Z,1033.6
2019-01-04T00:05:49.237Z,1033.8
2019-01-04T00:06:42.153Z,1033.7
2019-01-04T00:07:35.102Z,1033.8
2019-01-04T00:08:27.977Z,1033.7
2019-01-04T00:09:20.926Z,1033.8
2019-01-04T00:10:13.813Z,1033.7
2019-01-04T00:11:06.766Z,1033.7
2019-01-04T00:11:59.647Z,1033.7
2019-01-04T00:12:52.542Z,1033.7
2019-01-04T00:13:45.523Z,1033.7
2019-01-04T00:14:38.528Z,1033.5
2019-01-04T00:15:31.437Z,1033.7
2019-01-04T00:16:24.373Z,1033.8
2019-01-04T00:17:17.269Z,1033.8
2019-01-04T00:18:10.195Z,1033.6
2019-01-04T00:19:03.117Z,1033.7
2019-01-04T00:19:56.065Z,1033.7
2019-01-04T00:20:48.996Z,1033.8
2019-01-04T00:21:42.008Z,1033.8
2019-01-04T00:22:34.993Z,1033.7
2019-01-04T00:23:27.883Z,1033.8
2019-01-04T00:24:20.804Z,1033.7
2019-01-04T00:25:13.723Z,1033.6
2019-01-04T00:26:06.612Z,1033.6
2019-01-04T00:26:59.584Z,1033.7
2019-01-04T00:27:52.543Z,1033.6
2019-01-04T00:28:45.455Z,1033.7
2019-01-04T00:29:38.491Z,1033.7
2019-01-04T00:30:31.395Z,1033.8
2019-01-04T00:31:24.285Z,1033.6
2019-01-04T00:32:17.312Z,1033.8
2019-01-04T00:33:10.204Z,1033.8
2019-01-04T00:34:03.066Z,1033.6
2019-01-04T00:34:56.026Z,1033.8
2019-01-04T00:35:48.906Z,1033.7
2019-01-04T00:36:41.805Z,1033.8
2019-01-04T00:37:34.747Z,1033.8
2019-01-04T00:38:27.651Z,1033.8
2019-01-04T00:39:20.593Z,1033.7
2019-01-04T00:40:13.482Z,1033.6
2019-01-04T00:41:06.429Z,1033.8
2019-01-04T00:41:59.303Z,1033.8
2019-01-04T00:42:52.183Z,1033.9
2019-01-04T00:43:45.148Z,1033.9
2019-01-04T00:44:38.125Z,1033.9
2019-01-04T00:45:31.013Z,1033.9
2019-01-04T00:46:23.943Z,1033.8
2019-01-04T00:47:16.821Z,1033.9
2019-01-04T00:48:09.828Z,1033.8
2019-01-04T00:49:02.773Z,1033.9
2019-01-04T00:49:55.713Z,1033.9
2019-01-04T00:50:48.676Z,1033.9
2019-01-04T00:51:41.530Z,1033.9
2019-01-04T00:52:34.419Z,1033.9
2019-01-04T00:53:27.362Z,1033.9
2019-01-04T00:54:20.257Z,1033.9
2019-01-04T00:55:13.137Z,1033.9
2019-01-04T00:56:06.117Z,1033.9
2019-01-04T00:56:59.068Z,1033.9
2019-01-04T00:57:52.038Z,1033.9
2019-01-04T00:58:44.972Z,1033.9
2019-01-04T00:59:37.918Z,1033.8
2019-01-04T01:00:30.817Z,1033.8
2019-01-04T01:01:23.760Z,1033.9
2019-01-04T01:02:16.731Z,1033.9
2019-01-04T01:03:09.715Z,1033.8
2019-01-04T01:04:02.584Z,1033.8
2019-01-04T01:04:55.466Z,1033.8
2019-01-04T01:05:48.374Z,1033.7
2019-01-04T01:06:41.339Z,1033.9
2019-01-04T01:07:34.280Z,1033.8
2019-01-04T01:08:27.148Z,1033.9
2019-01-04T01:09:20.025Z,1034
2019-01-04T01:10:12.913Z,1033.9
2019-01-04T01:11:05.772Z,1034
2019-01-04T01:11:58.686Z,1034
2019-01-04T01:12:51.642Z,1034
2019-01-04T01:13:44.582Z,1033.9
2019-01-04T01:14:37.494Z,1033.9
2019-01-04T01:15:30.427Z,1033.9
2019-01-04T01:16:23.344Z,1033.9
2019-01-04T01:17:16.769Z,1033.9
2019-01-04T01:18:09.692Z,1033.9
2019-01-04T01:19:04.121Z,1034
2019-01-04T01:19:57.005Z,1034
2019-01-04T01:20:49.912Z,1033.8
2019-01-04T01:21:42.835Z,1033.9
2019-01-04T01:22:35.744Z,1033.9
2019-01-04T01:23:28.716Z,1033.8
2019-01-04T01:24:21.865Z,1034
2019-01-04T01:25:14.768Z,1034
2019-01-04T01:26:07.714Z,1033.9
2019-01-04T01:27:00.588Z,1033.8
2019-01-04T01:27:53.501Z,1033.9
2019-01-04T01:28:46.449Z,1034
2019-01-04T01:29:39.385Z,1034
2019-01-04T01:30:32.266Z,1034
2019-01-04T01:31:25.193Z,1034
2019-01-04T01:32:18.101Z,1034.1
2019-01-04T01:33:11.015Z,1033.9
2019-01-04T01:34:04.082Z,1034.1
2019-01-04T01:34:57.074Z,1033.9
2019-01-04T01:35:49.940Z,1034
2019-01-04T01:36:42.838Z,1034
2019-01-04T01:37:35.710Z,1034
2019-01-04T01:38:28.614Z,1034
2019-01-04T01:39:21.453Z,1033.8
2019-01-04T01:40:14.344Z,1034
2019-01-04T01:41:07.226Z,1034
2019-01-04T01:42:00.346Z,1033.9
2019-01-04T01:42:53.247Z,1034.1
2019-01-04T01:43:46.380Z,1034.1
2019-01-04T01:44:39.334Z,1034.2
2019-01-04T01:45:32.290Z,1034.1
2019-01-04T01:46:25.140Z,1034.2
2019-01-04T01:47:18.033Z,1034.1
2019-01-04T01:48:10.945Z,1034.1
2019-01-04T01:49:03.886Z,1034
2019-01-04T01:49:56.854Z,1034.1
2019-01-04T01:50:49.809Z,1034.1
2019-01-04T01:51:42.752Z,1034.2
2019-01-04T01:52:35.663Z,1034.1
2019-01-04T01:53:28.581Z,1034.2
2019-01-04T01:54:21.494Z,1034.1
2019-01-04T01:55:14.434Z,1034.1
2019-01-04T01:56:07.370Z,1033.8
2019-01-04T01:57:00.347Z,1034.1
2019-01-04T01:57:53.208Z,1033.9
2019-01-04T01:58:46.170Z,1034.1
2019-01-04T01:59:39.088Z,1034.1
2019-01-04T02:00:32.076Z,1034.1
2019-01-04T02:01:24.986Z,1034
2019-01-04T02:02:17.885Z,1034
2019-01-04T02:03:10.784Z,1034
2019-01-04T02:04:03.743Z,1034.1
2019-01-04T02:04:56.696Z,1034.1
2019-01-04T02:05:49.782Z,1034
2019-01-04T02:06:42.784Z,1034
2019-01-04T02:07:35.812Z,1034.1
2019-01-04T02:08:28.763Z,1034.1
2019-01-04T02:09:21.637Z,1034.1
2019-01-04T02:10:14.679Z,1034.1
2019-01-04T02:11:07.642Z,1034.1
2019-01-04T02:12:00.678Z,1034.1
2019-01-04T02:12:53.544Z,1034.1
2019-01-04T02:13:46.432Z,1034.1
2019-01-04T02:14:39.331Z,1034.2
2019-01-04T02:15:32.301Z,1034.1
2019-01-04T02:16:25.240Z,1034.1
2019-01-04T02:17:18.334Z,1034.1
2019-01-04T02:18:11.237Z,1034.1
2019-01-04T02:19:04.105Z,1034
2019-01-04T02:19:57.013Z,1034
2019-01-04T02:20:49.905Z,1034.1
2019-01-04T02:21:42.824Z,1034.1
2019-01-04T02:22:35.736Z,1034
2019-01-04T02:23:28.566Z,1034.1
2019-01-04T02:24:21.512Z,1034
2019-01-04T02:25:14.433Z,1034.1
2019-01-04T02:26:07.349Z,1034.1
2019-01-04T02:27:00.265Z,1034
2019-01-04T02:27:53.305Z,1034.1
2019-01-04T02:28:46.184Z,1034.1
2019-01-04T02:29:39.086Z,1034.1
2019-01-04T02:30:32.028Z,1034.1
2019-01-04T02:31:25.022Z,1034.2
2019-01-04T02:32:17.969Z,1034.2
2019-01-04T02:33:10.953Z,1034.2
2019-01-04T02:34:03.957Z,1034
2019-01-04T02:34:56.846Z,1034.1
2019-01-04T02:35:49.730Z,1034.1
2019-01-04T02:36:42.698Z,1034.1
2019-01-04T02:37:35.632Z,1034.2
2019-01-04T02:38:28.532Z,1034.2
2019-01-04T02:39:21.472Z,1034.3
2019-01-04T02:40:14.473Z,1034.2
2019-01-04T02:41:07.394Z,1034.2
2019-01-04T02:42:00.375Z,1034.3
2019-01-04T02:42:53.296Z,1034.2
2019-01-04T02:43:46.199Z,1034.2
2019-01-04T02:44:39.144Z,1034.3
2019-01-04T02:45:32.060Z,1034.2
2019-01-04T02:46:24.914Z,1034.3
2019-01-04T02:47:17.907Z,1034.1
2019-01-04T02:48:10.834Z,1034.1
2019-01-04T02:49:03.790Z,1034.1
2019-01-04T02:49:56.680Z,1034.1
2019-01-04T02:50:49.549Z,1034.1
2019-01-04T02:51:42.584Z,1034.1
2019-01-04T02:52:35.475Z,1034.1
2019-01-04T02:53:28.338Z,1034
2019-01-04T02:54:21.232Z,1034
2019-01-04T02:55:14.106Z,1034.1
2019-01-04T02:56:07.058Z,1034
2019-01-04T02:57:00.002Z,1034.1
2019-01-04T02:57:52.965Z,1034.1
2019-01-04T02:58:45.875Z,1034.2
2019-01-04T02:59:38.748Z,1034.2
2019-01-04T03:00:31.679Z,1034.2
2019-01-04T03:01:24.600Z,1034.2
2019-01-04T03:02:17.552Z,1034.2
2019-01-04T03:03:10.521Z,1033.9
2019-01-04T03:04:03.485Z,1034.1
2019-01-04T03:04:56.430Z,1034
2019-01-04T03:05:49.459Z,1034.1
2019-01-04T03:06:42.460Z,1034
2019-01-04T03:07:35.379Z,1033.9
2019-01-04T03:08:28.290Z,1034
2019-01-04T03:09:21.159Z,1033.9
2019-01-04T03:10:14.017Z,1033.9
2019-01-04T03:11:06.904Z,1033.9
2019-01-04T03:11:59.784Z,1033.9
2019-01-04T03:12:52.683Z,1034
2019-01-04T03:13:45.766Z,1033.9
2019-01-04T03:14:38.682Z,1034
2019-01-04T03:15:31.576Z,1033.8
2019-01-04T03:16:24.532Z,1034
2019-01-04T03:17:17.443Z,1033.9
2019-01-04T03:18:10.387Z,1033.9
2019-01-04T03:19:03.334Z,1033.9
2019-01-04T03:19:56.192Z,1033.8
2019-01-04T03:20:49.063Z,1033.8
2019-01-04T03:21:42.114Z,1033.8
2019-01-04T03:22:35.009Z,1033.8
2019-01-04T03:23:27.939Z,1033.9
2019-01-04T03:24:20.864Z,1033.9
2019-01-04T03:25:13.798Z,1033.9
2019-01-04T03:26:06.732Z,1033.9
2019-01-04T03:26:59.628Z,1033.9
2019-01-04T03:27:52.687Z,1033.9
2019-01-04T03:28:45.626Z,1033.9
2019-01-04T03:29:38.526Z,1033.8
2019-01-04T03:30:31.519Z,1033.9
2019-01-04T03:31:24.532Z,1033.9
2019-01-04T03:32:17.665Z,1033.9
2019-01-04T03:33:10.631Z,1033.8
2019-01-04T03:34:03.538Z,1033.7
2019-01-04T03:34:56.448Z,1033.9
2019-01-04T03:35:49.385Z,1033.8
2019-01-04T03:36:42.278Z,1033.9
2019-01-04T03:37:35.215Z,1033.9
2019-01-04T03:38:28.147Z,1033.9
2019-01-04T03:39:21.074Z,1033.9
2019-01-04T03:40:13.972Z,1033.9
2019-01-04T03:41:06.912Z,1033.9
2019-01-04T03:41:59.786Z,1033.7
2019-01-04T03:42:52.667Z,1033.9
2019-01-04T03:43:45.623Z,1033.9
2019-01-04T03:44:38.549Z,1033.6
2019-01-04T03:45:31.503Z,1033.8
2019-01-04T03:46:24.422Z,1033.9
2019-01-04T03:47:17.306Z,1033.9
2019-01-04T03:48:10.225Z,1033.8
2019-01-04T03:49:03.251Z,1033.8
2019-01-04T03:49:56.194Z,1033.7
2019-01-04T03:50:49.476Z,1033.8
2019-01-04T03:51:42.414Z,1033.8
2019-01-04T03:52:35.325Z,1033.8
2019-01-04T03:53:28.206Z,1033.8
2019-01-04T03:54:21.145Z,1033.8
2019-01-04T03:55:14.110Z,1033.7
2019-01-04T03:56:12.062Z,1033.8
2019-01-04T03:57:05.004Z,1033.9
2019-01-04T03:57:57.858Z,1033.7
2019-01-04T03:58:50.802Z,1033.9
2019-01-04T03:59:43.825Z,1033.8
2019-01-04T04:00:36.763Z,1033.7
2019-01-04T04:01:29.744Z,1033.8
2019-01-04T04:02:22.764Z,1033.8
2019-01-04T04:03:15.641Z,1033.8
2019-01-04T04:04:08.586Z,1033.7
2019-01-04T04:05:01.614Z,1033.8
2019-01-04T04:05:54.506Z,1033.8
2019-01-04T04:06:47.496Z,1033.9
2019-01-04T04:07:40.596Z,1033.8
2019-01-04T04:08:33.540Z,1033.7
2019-01-04T04:09:26.426Z,1033.8
2019-01-04T04:10:19.327Z,1033.9
2019-01-04T04:11:12.198Z,1033.8
2019-01-04T04:12:05.144Z,1033.7
2019-01-04T04:12:58.111Z,1033.8
2019-01-04T04:13:50.997Z,1033.8
2019-01-04T04:14:43.933Z,1033.7
2019-01-04T04:15:36.836Z,1033.8
2019-01-04T04:16:29.799Z,1033.8
2019-01-04T04:17:22.689Z,1033.8
2019-01-04T04:18:15.646Z,1033.8
2019-01-04T04:19:08.610Z,1033.8
2019-01-04T04:20:01.568Z,1033.7
2019-01-04T04:20:54.535Z,1033.7
2019-01-04T04:21:47.540Z,1033.7
2019-01-04T04:22:40.446Z,1033.7
2019-01-04T04:23:33.517Z,1033.7
2019-01-04T04:24:26.518Z,1033.6
2019-01-04T04:25:19.451Z,1033.7
2019-01-04T04:26:12.361Z,1033.5
2019-01-04T04:27:05.332Z,1033.6
2019-01-04T04:27:58.307Z,1033.6
2019-01-04T04:28:51.226Z,1033.4
2019-01-04T04:29:44.126Z,1033.6
2019-01-04T04:30:37.072Z,1033.6
2019-01-04T04:31:29.976Z,1033.5
2019-01-04T04:32:22.934Z,1033.6
2019-01-04T04:33:16.014Z,1033.6
2019-01-04T04:34:08.918Z,1033.6
2019-01-04T04:35:01.768Z,1033.5
2019-01-04T04:35:54.670Z,1033.7
2019-01-04T04:36:47.550Z,1033.7
2019-01-04T04:37:40.435Z,1033.7
2019-01-04T04:38:33.413Z,1033.7
2019-01-04T04:39:26.369Z,1033.5
2019-01-04T04:40:19.447Z,1033.6
2019-01-04T04:41:12.357Z,1033.7
2019-01-04T04:42:05.261Z,1033.4
2019-01-04T04:42:58.189Z,1033.7
2019-01-04T04:43:51.096Z,1033.6
2019-01-04T04:44:44.108Z,1033.6
2019-01-04T04:45:37.091Z,1033.6
2019-01-04T04:46:30.013Z,1033.6
2019-01-04T04:47:22.906Z,1033.5
2019-01-04T04:48:15.851Z,1033.5
2019-01-04T04:49:08.753Z,1033.5
2019-01-04T04:50:01.656Z,1033.3
2019-01-04T04:50:54.661Z,1033.5
2019-01-04T04:51:47.536Z,1033.4
2019-01-04T04:52:40.454Z,1033.4
2019-01-04T04:53:33.373Z,1033.5
2019-01-04T04:54:27.909Z,1033.5
2019-01-04T04:55:20.826Z,1033.4
2019-01-04T04:56:13.730Z,1033.4
2019-01-04T04:57:06.656Z,1033.4
2019-01-04T04:57:59.549Z,1033.5
2019-01-04T04:58:52.510Z,1033.4
2019-01-04T04:59:45.549Z,1033.4
2019-01-04T05:00:38.456Z,1033.5
2019-01-04T05:01:31.398Z,1033.5
2019-01-04T05:02:24.372Z,1033.5
2019-01-04T05:03:17.332Z,1033.5
2019-01-04T05:04:10.270Z,1033.5
2019-01-04T05:05:03.259Z,1033.5
2019-01-04T05:05:56.232Z,1033.5
2019-01-04T05:06:49.251Z,1033.4
2019-01-04T05:07:42.198Z,1033.5
2019-01-04T05:08:35.083Z,1033.5
2019-01-04T05:09:27.959Z,1033.5
2019-01-04T05:10:20.918Z,1033.5
2019-01-04T05:11:13.786Z,1033.4
2019-01-04T05:12:06.745Z,1033.4
2019-01-04T05:12:59.632Z,1033.5
2019-01-04T05:13:52.530Z,1033.5
2019-01-04T05:14:45.541Z,1033.5
2019-01-04T05:15:38.613Z,1033.5
2019-01-04T05:16:31.499Z,1033.4
2019-01-04T05:17:24.490Z,1033.5
2019-01-04T05:18:17.392Z,1033.5
2019-01-04T05:19:10.273Z,1033.6
2019-01-04T05:20:03.162Z,1033.7
2019-01-04T05:20:56.108Z,1033.6
2019-01-04T05:21:49.085Z,1033.6
2019-01-04T05:22:42.016Z,1033.3
2019-01-04T05:23:35.047Z,1033.5
2019-01-04T05:24:28.025Z,1033.6
2019-01-04T05:25:20.965Z,1033.5
2019-01-04T05:26:13.869Z,1033.6
2019-01-04T05:27:06.747Z,1033.6
2019-01-04T05:27:59.691Z,1033.6
2019-01-04T05:28:52.590Z,1033.5
2019-01-04T05:29:45.532Z,1033.6
2019-01-04T05:30:38.424Z,1033.7
2019-01-04T05:31:31.301Z,1033.6
2019-01-04T05:32:24.191Z,1033.7
2019-01-04T05:33:17.098Z,1033.7
2019-01-04T05:34:10.028Z,1033.7
2019-01-04T05:35:02.953Z,1033.6
2019-01-04T05:35:55.874Z,1033.6
2019-01-04T05:36:48.764Z,1033.6
2019-01-04T05:37:41.779Z,1033.6
2019-01-04T05:38:34.749Z,1033.6
2019-01-04T05:39:27.707Z,1033.5
2019-01-04T05:40:20.583Z,1033.5
2019-01-04T05:41:13.487Z,1033.5
2019-01-04T05:42:06.426Z,1033.5
2019-01-04T05:42:59.336Z,1033.4
2019-01-04T05:43:52.299Z,1033.5
2019-01-04T05:44:45.240Z,1033.4
2019-01-04T05:45:38.286Z,1033.4
2019-01-04T05:46:31.237Z,1033.5
2019-01-04T05:47:25.095Z,1033.4
2019-01-04T05:48:18.361Z,1033.4
2019-01-04T05:49:11.346Z,1033.5
2019-01-04T05:50:04.248Z,1033.4
2019-01-04T05:50:57.525Z,1033.5
2019-01-04T05:51:51.060Z,1033.3
2019-01-04T05:52:44.064Z,1033.4
2019-01-04T05:53:36.985Z,1033.5
2019-01-04T05:54:30.066Z,1033.4
2019-01-04T05:55:22.996Z,1033.5
2019-01-04T05:56:15.954Z,1033.5
2019-01-04T05:57:08.913Z,1033.4
2019-01-04T05:58:02.028Z,1033.4
2019-01-04T05:58:54.906Z,1033.4
2019-01-04T05:59:47.866Z,1033.5
2019-01-04T06:00:40.827Z,1033.4
2019-01-04T06:01:33.724Z,1033.3
2019-01-04T06:02:26.774Z,1033.4
2019-01-04T06:03:24.736Z,1033.5
2019-01-04T06:04:17.713Z,1033.4
2019-01-04T06:05:10.654Z,1033.5
2019-01-04T06:06:03.636Z,1033.5
2019-01-04T06:06:56.483Z,1033.4
2019-01-04T06:07:49.387Z,1033.5
2019-01-04T06:08:42.272Z,1033.6
2019-01-04T06:09:35.139Z,1033.4
2019-01-04T06:10:28.044Z,1033.5
2019-01-04T06:11:20.992Z,1033.6
2019-01-04T06:12:13.873Z,1033.6
2019-01-04T06:13:06.870Z,1033.6
2019-01-04T06:14:01.072Z,1033.7
2019-01-04T06:14:53.971Z,1033.5
2019-01-04T06:15:46.982Z,1033.6
2019-01-04T06:16:40.007Z,1033.7
2019-01-04T06:17:32.917Z,1033.7
2019-01-04T06:18:25.894Z,1033.7
2019-01-04T06:19:18.835Z,1033.7
2019-01-04T06:20:11.697Z,1033.7
2019-01-04T06:21:04.664Z,1033.7
2019-01-04T06:21:57.540Z,1033.7
2019-01-04T06:22:51.479Z,1033.8
2019-01-04T06:23:44.737Z,1033.7
2019-01-04T06:24:38.971Z,1033.7
2019-01-04T06:25:31.859Z,1033.7
2019-01-04T06:26:24.785Z,1033.6
2019-01-04T06:27:17.701Z,1033.6
2019-01-04T06:28:10.589Z,1033.6
2019-01-04T06:29:03.468Z,1033.6
2019-01-04T06:29:56.458Z,1033.6
2019-01-04T06:30:49.429Z,1033.7
2019-01-04T06:31:42.423Z,1033.6
2019-01-04T06:32:35.311Z,1033.6
2019-01-04T06:33:28.269Z,1033.6
2019-01-04T06:34:22.033Z,1033.6
2019-01-04T06:35:15.059Z,1033.4
2019-01-04T06:36:07.949Z,1033.3
2019-01-04T06:37:00.881Z,1033.4
2019-01-04T06:37:53.863Z,1033.4
2019-01-04T06:38:46.824Z,1033.4
2019-01-04T06:39:39.712Z,1033.3
2019-01-04T06:40:32.661Z,1033.4
2019-01-04T06:41:25.652Z,1033.4
2019-01-04T06:42:18.660Z,1033.4
2019-01-04T06:43:11.634Z,1033.5
2019-01-04T06:44:05.070Z,1033.4
2019-01-04T06:44:58.082Z,1033.5
2019-01-04T06:45:51.041Z,1033.6
2019-01-04T06:46:44.046Z,1033.5
2019-01-04T06:47:37.004Z,1033.7
2019-01-04T06:48:29.948Z,1033.6
2019-01-04T06:49:22.820Z,1033.7
2019-01-04T06:50:15.737Z,1033.7
2019-01-04T06:51:08.670Z,1033.6
2019-01-04T06:52:01.632Z,1033.6
2019-01-04T06:52:54.637Z,1033.4
2019-01-04T06:53:47.553Z,1033.5
2019-01-04T06:54:40.508Z,1033.5
2019-01-04T06:55:33.460Z,1033.4
2019-01-04T06:56:26.383Z,1033.4
2019-01-04T06:57:19.317Z,1033.3
2019-01-04T06:58:12.248Z,1033.5
2019-01-04T06:59:05.146Z,1033.4
2019-01-04T06:59:58.029Z,1033.3
2019-01-04T07:00:50.886Z,1033.5
2019-01-04T07:01:43.780Z,1033.4
2019-01-04T07:02:36.674Z,1033.4
2019-01-04T07:03:29.790Z,1033.4
2019-01-04T07:04:22.680Z,1033.3
2019-01-04T07:05:15.556Z,1033.2
2019-01-04T07:06:08.411Z,1033.3
2019-01-04T07:07:01.385Z,1033.3
2019-01-04T07:07:54.266Z,1033.1
2019-01-04T07:08:47.229Z,1033.2
2019-01-04T07:09:40.104Z,1033.2
2019-01-04T07:10:32.990Z,1033.2
2019-01-04T07:11:25.871Z,1033.3
2019-01-04T07:12:18.826Z,1033.3
2019-01-04T07:13:11.710Z,1033.3
2019-01-04T07:14:04.664Z,1033.2
2019-01-04T07:14:57.583Z,1033.4
2019-01-04T07:15:50.500Z,1033.4
2019-01-04T07:16:43.391Z,1033.4
2019-01-04T07:17:36.418Z,1033.4
2019-01-04T07:18:29.533Z,1033.4
2019-01-04T07:19:22.614Z,1033.4
2019-01-04T07:20:15.462Z,1033.3
2019-01-04T07:21:08.346Z,1033.2
2019-01-04T07:22:01.224Z,1033.2
2019-01-04T07:22:54.167Z,1033.3
2019-01-04T07:23:47.072Z,1033.4
2019-01-04T07:24:40.088Z,1033.5
2019-01-04T07:25:32.982Z,1033.6
2019-01-04T07:26:25.892Z,1033.4
2019-01-04T07:27:18.832Z,1033.6
2019-01-04T07:28:11.732Z,1033.7
2019-01-04T07:29:04.622Z,1033.6
2019-01-04T07:29:57.716Z,1033.7
2019-01-04T07:30:50.574Z,1033.7
2019-01-04T07:31:43.675Z,1033.8
2019-01-04T07:32:36.884Z,1033.7
2019-01-04T07:33:29.883Z,1033.7
2019-01-04T07:34:23.032Z,1033.7
2019-01-04T07:35:16.082Z,1033.7
2019-01-04T07:36:09.019Z,1033.7
2019-01-04T07:37:01.949Z,1033.8
2019-01-04T07:37:54.909Z,1033.7
2019-01-04T07:38:47.849Z,1033.6
2019-01-04T07:39:40.738Z,1033.7
2019-01-04T07:40:33.651Z,1033.7
2019-01-04T07:41:26.566Z,1033.6
2019-01-04T07:42:19.451Z,1033.7
2019-01-04T07:43:16.932Z,1033.5
2019-01-04T07:44:09.787Z,1033.6
2019-01-04T07:45:02.666Z,1033.7
2019-01-04T07:45:55.604Z,1033.7
2019-01-04T07:46:48.606Z,1033.6
2019-01-04T07:47:41.469Z,1033.6
2019-01-04T07:48:34.331Z,1033.6
2019-01-04T07:49:27.232Z,1033.6
2019-01-04T07:50:20.092Z,1033.7
2019-01-04T07:51:13.019Z,1033.6
2019-01-04T07:52:06.012Z,1033.7
2019-01-04T07:52:58.987Z,1033.4
2019-01-04T07:53:51.875Z,1033.6
2019-01-04T07:54:44.742Z,1033.6
2019-01-04T07:55:37.633Z,1033.5
2019-01-04T07:56:30.546Z,1033.5
2019-01-04T07:57:23.468Z,1033.6
2019-01-04T07:58:16.328Z,1033.6
2019-01-04T07:59:09.223Z,1033.7
2019-01-04T08:00:02.118Z,1033.6
2019-01-04T08:00:55.073Z,1033.6
2019-01-04T08:01:47.964Z,1033.6
2019-01-04T08:02:40.904Z,1033.7
2019-01-04T08:03:33.795Z,1033.7
2019-01-04T08:04:26.737Z,1033.8
2019-01-04T08:05:19.622Z,1033.7
2019-01-04T08:06:12.506Z,1033.8
2019-01-04T08:07:05.439Z,1033.8
2019-01-04T08:07:58.347Z,1033.7
2019-01-04T08:08:52.825Z,1033.7
2019-01-04T08:09:45.773Z,1033.8
2019-01-04T08:10:38.654Z,1033.7
2019-01-04T08:11:31.540Z,1033.8
2019-01-04T08:12:24.437Z,1033.7
2019-01-04T08:13:17.349Z,1033.7
2019-01-04T08:14:10.276Z,1033.8
2019-01-04T08:15:03.136Z,1033.7
2019-01-04T08:15:56.045Z,1033.8
2019-01-04T08:16:48.935Z,1033.7
2019-01-04T08:17:42.148Z,1033.5
2019-01-04T08:18:35.734Z,1033.9
2019-01-04T08:19:28.592Z,1033.9
2019-01-04T08:20:21.448Z,1033.8
2019-01-04T08:21:14.345Z,1033.9
2019-01-04T08:22:07.224Z,1034
2019-01-04T08:23:00.121Z,1033.9
2019-01-04T08:23:52.982Z,1033.9
2019-01-04T08:24:45.963Z,1033.8
2019-01-04T08:25:38.896Z,1033.9
2019-01-04T08:26:31.792Z,1033.9
2019-01-04T08:27:24.678Z,1033.9
2019-01-04T08:28:17.665Z,1034.1
2019-01-04T08:29:11.211Z,1034.1
2019-01-04T08:30:04.117Z,1034
2019-01-04T08:30:56.982Z,1034
2019-01-04T08:31:49.855Z,1034
2019-01-04T08:32:42.751Z,1033.9
2019-01-04T08:33:35.646Z,1033.9
2019-01-04T08:34:28.549Z,1033.9
2019-01-04T08:35:21.469Z,1034
2019-01-04T08:36:14.344Z,1033.9
2019-01-04T08:37:07.229Z,1034
2019-01-04T08:38:00.124Z,1034
2019-01-04T08:38:53.056Z,1034
2019-01-04T08:39:46.090Z,1033.9
2019-01-04T08:40:39.072Z,1033.8
2019-01-04T08:41:32.022Z,1033.9
2019-01-04T08:42:24.914Z,1033.9
2019-01-04T08:43:17.897Z,1033.9
2019-01-04T08:44:10.850Z,1033.9
2019-01-04T08:45:03.714Z,1033.9
2019-01-04T08:45:56.776Z,1033.8
2019-01-04T08:46:49.712Z,1033.8
2019-01-04T08:47:42.672Z,1033.8
2019-01-04T08:48:35.549Z,1033.7
2019-01-04T08:49:28.523Z,1033.7
2019-01-04T08:50:21.389Z,1033.7
2019-01-04T08:51:14.280Z,1033.7
2019-01-04T08:52:07.158Z,1033.8
2019-01-04T08:53:00.026Z,1033.8
2019-01-04T08:53:52.905Z,1033.8
2019-01-04T08:54:45.882Z,1033.8
2019-01-04T08:55:38.819Z,1033.7
2019-01-04T08:56:31.712Z,1033.9
2019-01-04T08:57:24.634Z,1033.9
2019-01-04T08:58:17.555Z,1033.9
2019-01-04T08:59:10.414Z,1033.9
2019-01-04T09:00:03.368Z,1033.9
2019-01-04T09:00:56.346Z,1033.9
2019-01-04T09:01:49.240Z,1034
2019-01-04T09:02:42.161Z,1033.9
2019-01-04T09:03:35.054Z,1033.9
2019-01-04T09:04:27.952Z,1033.8
2019-01-04T09:05:20.852Z,1033.8
2019-01-04T09:06:13.774Z,1033.9
2019-01-04T09:07:06.670Z,1033.8
2019-01-04T09:07:59.545Z,1033.7
2019-01-04T09:08:52.451Z,1033.8
2019-01-04T09:09:45.402Z,1033.8
2019-01-04T09:10:38.341Z,1033.8
2019-01-04T09:11:31.219Z,1033.8
2019-01-04T09:12:24.102Z,1033.6
2019-01-04T09:13:16.992Z,1033.6
2019-01-04T09:14:09.885Z,1033.7
2019-01-04T09:15:02.841Z,1033.6
2019-01-04T09:15:55.818Z,1033.6
2019-01-04T09:16:48.741Z,1033.6
2019-01-04T09:17:41.632Z,1033.6
2019-01-04T09:18:34.524Z,1033.4
2019-01-04T09:19:28.465Z,1033.5
2019-01-04T09:20:21.385Z,1033.5
2019-01-04T09:21:14.325Z,1033.5
2019-01-04T09:22:07.225Z,1033.5
2019-01-04T09:23:00.119Z,1033.6
2019-01-04T09:23:53.025Z,1033.6
2019-01-04T09:24:45.935Z,1033.5
2019-01-04T09:25:38.824Z,1033.5
2019-01-04T09:26:31.744Z,1033.4
2019-01-04T09:27:24.682Z,1033.4
2019-01-04T09:28:18.547Z,1033.5
2019-01-04T09:29:11.472Z,1033.5
2019-01-04T09:30:04.356Z,1033.5
2019-01-04T09:30:57.325Z,1033.5
2019-01-04T09:31:50.324Z,1033.4
2019-01-04T09:32:43.251Z,1033.5
2019-01-04T09:33:36.186Z,1033.5
2019-01-04T09:34:29.071Z,1033.4
2019-01-04T09:35:21.952Z,1033.4
2019-01-04T09:36:14.855Z,1033.3
2019-01-04T09:37:07.859Z,1033.5
2019-01-04T09:38:00.767Z,1033.4
2019-01-04T09:38:53.793Z,1033.4
2019-01-04T09:39:46.669Z,1033.4
2019-01-04T09:40:40.613Z,1033.2
2019-01-04T09:41:33.753Z,1033.4
2019-01-04T09:42:26.737Z,1033.4
2019-01-04T09:43:19.645Z,1033.4
2019-01-04T09:44:12.516Z,1033.4
2019-01-04T09:45:05.402Z,1033.4
2019-01-04T09:45:58.397Z,1033.4
2019-01-04T09:46:51.639Z,1033.4
2019-01-04T09:47:44.584Z,1033.4
2019-01-04T09:48:37.510Z,1033.2
2019-01-04T09:49:30.431Z,1033.5
2019-01-04T09:50:23.318Z,1033.5
2019-01-04T09:51:16.203Z,1033.3
2019-01-04T09:52:09.078Z,1033.4
2019-01-04T09:53:02.063Z,1033.3
2019-01-04T09:53:54.996Z,1033.3
2019-01-04T09:54:47.909Z,1033.3
2019-01-04T09:55:40.843Z,1033.4
2019-01-04T09:56:33.714Z,1033.3
2019-01-04T09:57:26.700Z,1033.2
2019-01-04T09:58:19.629Z,1033.2
2019-01-04T09:59:12.520Z,1033.3
2019-01-04T10:00:05.380Z,1033.3
2019-01-04T10:00:58.268Z,1033.3
2019-01-04T10:01:52.575Z,1033.2
2019-01-04T10:02:45.687Z,1033.3
2019-01-04T10:03:38.601Z,1033.1
2019-01-04T10:04:31.467Z,1033.2
2019-01-04T10:05:24.353Z,1033.2
2019-01-04T10:06:17.303Z,1033.2
2019-01-04T10:07:10.185Z,1033.2
2019-01-04T10:08:03.104Z,1033.1
2019-01-04T10:08:56.019Z,1033.1
2019-01-04T10:09:48.986Z,1033.1
2019-01-04T10:10:41.866Z,1033.1
2019-01-04T10:11:34.774Z,1033.2
2019-01-04T10:12:27.629Z,1033.2
2019-01-04T10:13:20.556Z,1033.1
2019-01-04T10:14:13.481Z,1033.1
2019-01-04T10:15:06.427Z,1033
2019-01-04T10:15:59.373Z,1033.1
2019-01-04T10:16:52.270Z,1033.1
2019-01-04T10:17:45.402Z,1032.9
2019-01-04T10:18:39.212Z,1033
2019-01-04T10:19:32.109Z,1033
2019-01-04T10:20:25.005Z,1033.1
2019-01-04T10:21:19.063Z,1033
2019-01-04T10:22:11.965Z,1033
2019-01-04T10:23:04.840Z,1033
2019-01-04T10:23:57.932Z,1033
2019-01-04T10:24:50.883Z,1032.9
2019-01-04T10:25:44.185Z,1032.7
2019-01-04T10:26:37.712Z,1032.9
2019-01-04T10:27:30.600Z,1032.9
2019-01-04T10:28:23.704Z,1032.8
2019-01-04T10:29:16.610Z,1032.9
2019-01-04T10:30:09.542Z,1032.9
2019-01-04T10:31:02.728Z,1032.9
2019-01-04T10:31:56.022Z,1032.8
2019-01-04T10:32:48.877Z,1032.8
2019-01-04T10:33:41.865Z,1032.8
2019-01-04T10:34:34.842Z,1032.8
2019-01-04T10:35:34.031Z,1032.7
2019-01-04T10:36:26.946Z,1032.7
2019-01-04T10:37:19.873Z,1032.7
2019-01-04T10:38:12.747Z,1032.7
2019-01-04T10:39:06.292Z,1032.6
2019-01-04T10:39:59.332Z,1032.5
2019-01-04T10:40:52.482Z,1032.4
2019-01-04T10:41:45.645Z,1032.6
2019-01-04T10:42:38.590Z,1032.6
2019-01-04T10:43:31.962Z,1032.6
2019-01-04T10:44:25.888Z,1032.6
2019-01-04T10:45:18.970Z,1032.5
2019-01-04T10:46:12.059Z,1032.6
2019-01-04T10:47:04.990Z,1032.6
2019-01-04T10:47:57.957Z,1032.5
2019-01-04T10:48:50.898Z,1032.5
2019-01-04T10:49:43.803Z,1032.5
2019-01-04T10:50:36.714Z,1032.5
2019-01-04T10:51:29.639Z,1032.5
2019-01-04T10:52:22.594Z,1032.4
2019-01-04T10:53:16.776Z,1032.4
2019-01-04T10:54:09.708Z,1032.5
2019-01-04T10:55:02.664Z,1032.4
2019-01-04T10:55:55.584Z,1032.2
2019-01-04T10:56:48.516Z,1032.5
2019-01-04T10:57:41.380Z,1032.5
2019-01-04T10:58:34.351Z,1032.5
2019-01-04T10:59:27.227Z,1032.5
2019-01-04T11:00:20.100Z,1032.5
2019-01-04T11:01:13.010Z,1032.5
2019-01-04T11:02:05.938Z,1032.5
2019-01-04T11:02:58.862Z,1032.5
2019-01-04T11:03:51.796Z,1032.5